Time;durP1;ratioP1;P1;durP2;ratioP2;P2;SDS_P1;SDS_P2;PMS_P1;PMS_P2;Temp;Humidity;BMP_temperature;BMP_pressure;BME280_temperature;BME280_humidity;BME280_pressure;Samples;Min_cycle;Max_cycle;Signal;HPM_P1;HPM_P2
2023/07/25 00:00:39;;;;;;;6.68;2.03;;;;;;;17.48;100.00;99693.38;4952948;28;20221;-76
2023/07/25 00:03:06;;;;;;;11.38;3.30;;;;;;;17.44;100.00;99682.84;4950394;28;20271;-76
2023/07/25 00:05:34;;;;;;;6.38;1.80;;;;;;;17.42;100.00;99680.22;4960928;28;20320;-76
2023/07/25 00:08:01;;;;;;;14.50;4.20;;;;;;;17.39;100.00;99669.63;4957176;28;20221;-76
2023/07/25 00:10:28;;;;;;;6.65;2.00;;;;;;;17.30;100.00;99658.34;4962448;28;20233;-76
2023/07/25 00:12:55;;;;;;;13.48;4.22;;;;;;;17.28;100.00;99669.06;4955322;28;20225;-76
2023/07/25 00:15:21;;;;;;;10.68;2.95;;;;;;;17.35;100.00;99667.97;4957624;28;20233;-77
2023/07/25 00:17:49;;;;;;;7.82;2.28;;;;;;;17.31;100.00;99652.94;4958975;28;20224;-76
2023/07/25 00:20:16;;;;;;;7.35;2.10;;;;;;;17.34;100.00;99660.00;4954346;28;20250;-77
2023/07/25 00:22:43;;;;;;;8.45;2.38;;;;;;;17.11;100.00;99656.22;4963003;28;20229;-76
2023/07/25 00:25:10;;;;;;;7.95;2.28;;;;;;;17.08;100.00;99656.31;4956430;28;20634;-76
2023/07/25 00:27:37;;;;;;;8.75;2.45;;;;;;;17.09;100.00;99658.06;4962486;28;20260;-77
2023/07/25 00:30:04;;;;;;;16.15;4.28;;;;;;;17.03;100.00;99657.38;4956861;28;20232;-76
2023/07/25 00:32:33;;;;;;;8.75;2.65;;;;;;;16.96;100.00;99662.00;4959728;28;20284;-76
2023/07/25 00:35:01;;;;;;;14.35;4.22;;;;;;;17.04;100.00;99662.66;4957510;28;20295;-77
2023/07/25 00:37:31;;;;;;;8.05;2.65;;;;;;;16.92;100.00;99655.88;4963319;28;20246;-76
2023/07/25 00:39:58;;;;;;;16.77;4.63;;;;;;;16.90;100.00;99657.72;4954156;28;20233;-76
2023/07/25 00:42:24;;;;;;;9.57;2.80;;;;;;;16.94;100.00;99662.06;4958016;28;20233;-77
2023/07/25 00:44:52;;;;;;;11.85;3.42;;;;;;;16.89;100.00;99655.94;4952307;28;20284;-76
2023/07/25 00:47:21;;;;;;;8.23;2.38;;;;;;;16.95;100.00;99662.94;4959049;28;20244;-77
2023/07/25 00:49:49;;;;;;;10.63;2.95;;;;;;;16.99;100.00;99659.25;4950056;28;20236;-75
2023/07/25 00:52:16;;;;;;;7.13;2.10;;;;;;;17.01;100.00;99665.44;4960992;28;20233;-77
2023/07/25 00:54:47;;;;;;;7.80;2.30;;;;;;;16.88;100.00;99683.56;4957428;28;20242;-76
2023/07/25 00:57:16;;;;;;;8.20;2.30;;;;;;;16.74;100.00;99680.41;4952601;28;20244;-76
2023/07/25 00:59:46;;;;;;;11.57;3.30;;;;;;;16.73;100.00;99684.00;4958725;28;20225;-76
2023/07/25 01:02:14;;;;;;;7.15;2.03;;;;;;;16.71;100.00;99680.50;4951970;28;20244;-76
2023/07/25 01:04:41;;;;;;;11.60;3.25;;;;;;;16.56;100.00;99676.44;4955574;28;20236;-76
2023/07/25 01:07:12;;;;;;;9.15;2.50;;;;;;;16.67;100.00;99683.31;4945571;28;20307;-76
2023/07/25 01:09:43;;;;;;;7.93;2.30;;;;;;;16.72;100.00;99678.72;4956921;28;20236;-77
2023/07/25 01:12:11;;;;;;;6.93;2.10;;;;;;;16.75;100.00;99694.66;4949175;28;20828;-76
2023/07/25 01:14:39;;;;;;;8.98;2.60;;;;;;;16.86;100.00;99687.19;4958575;28;20225;-76
2023/07/25 01:17:08;;;;;;;16.83;4.57;;;;;;;16.87;100.00;99675.59;4950619;28;20228;-76
2023/07/25 01:19:36;;;;;;;7.55;2.15;;;;;;;16.90;100.00;99679.09;4960501;28;20240;-77
2023/07/25 01:22:03;;;;;;;14.23;4.15;;;;;;;16.76;100.00;99673.25;4949796;28;20222;-75
2023/07/25 01:24:30;;;;;;;8.45;2.45;;;;;;;16.78;100.00;99676.75;4953121;28;20710;-76
2023/07/25 01:26:56;;;;;;;12.20;3.50;;;;;;;16.74;100.00;99674.19;4952857;28;20225;-76
2023/07/25 01:29:23;;;;;;;6.32;1.95;;;;;;;16.89;100.00;99679.97;4961153;28;20235;-76
2023/07/25 01:31:50;;;;;;;20.92;5.88;;;;;;;16.93;100.00;99680.81;4950947;28;20236;-75
2023/07/25 01:34:16;;;;;;;10.10;2.88;;;;;;;16.90;100.00;99687.09;4950503;28;20245;-77
2023/07/25 01:36:43;;;;;;;6.63;2.05;;;;;;;16.86;100.00;99703.22;4956296;28;20272;-76
2023/07/25 01:39:10;;;;;;;8.05;2.22;;;;;;;16.92;100.00;99695.94;4954765;28;20408;-75
2023/07/25 01:41:38;;;;;;;8.73;2.50;;;;;;;16.90;100.00;99692.44;4959739;28;20236;-74
2023/07/25 01:44:05;;;;;;;17.50;5.15;;;;;;;16.99;100.00;99693.97;4955015;28;20229;-75
2023/07/25 01:46:31;;;;;;;9.40;2.70;;;;;;;16.98;100.00;99688.69;4958428;28;20244;-75
2023/07/25 01:48:58;;;;;;;16.30;4.80;;;;;;;16.93;100.00;99691.47;4945916;28;20244;-76
2023/07/25 01:51:26;;;;;;;13.70;3.85;;;;;;;16.92;100.00;99687.94;4952597;28;20229;-76
2023/07/25 01:53:53;;;;;;;16.70;4.45;;;;;;;16.91;100.00;99687.97;4950898;28;20296;-76
2023/07/25 01:56:20;;;;;;;9.95;2.67;;;;;;;16.87;100.00;99691.63;4954385;28;20224;-76
2023/07/25 01:58:47;;;;;;;8.05;2.25;;;;;;;16.87;100.00;99691.63;4954793;28;20229;-76
2023/07/25 02:01:14;;;;;;;8.48;2.33;;;;;;;16.91;100.00;99696.00;4957054;28;20232;-77
2023/07/25 02:03:41;;;;;;;8.55;2.42;;;;;;;16.72;100.00;99708.06;4956973;28;20235;-76
2023/07/25 02:06:07;;;;;;;8.38;2.22;;;;;;;16.63;100.00;99719.84;4948553;28;20240;-76
2023/07/25 02:08:34;;;;;;;8.68;2.42;;;;;;;16.57;100.00;99715.56;4957456;28;20272;-76
2023/07/25 02:11:01;;;;;;;20.45;5.03;;;;;;;16.49;100.00;99714.00;4952587;28;20248;-75
2023/07/25 02:13:28;;;;;;;6.53;1.92;;;;;;;16.52;100.00;99713.91;4955655;28;20235;-76
2023/07/25 02:15:55;;;;;;;16.10;4.60;;;;;;;16.48;100.00;99710.47;4945118;28;20237;-77
2023/07/25 02:18:22;;;;;;;17.50;5.22;;;;;;;16.60;100.00;99711.94;4983529;23;20255;-79
2023/07/25 02:20:48;;;;;;;9.00;2.47;;;;;;;16.66;100.00;99698.44;4975251;28;20236;-78
2023/07/25 02:23:15;;;;;;;7.32;2.08;;;;;;;16.67;100.00;99710.00;4978671;28;20228;-80
2023/07/25 02:25:42;;;;;;;8.43;2.33;;;;;;;16.62;100.00;99712.75;4970790;28;20291;-79
2023/07/25 02:28:08;;;;;;;10.23;2.75;;;;;;;16.62;100.00;99726.97;4951951;28;20263;-78
2023/07/25 02:30:35;;;;;;;8.82;2.47;;;;;;;16.56;100.00;99718.25;4963357;28;20233;-78
2023/07/25 02:33:02;;;;;;;15.68;4.22;;;;;;;16.53;100.00;99715.69;4957373;28;20284;-77
2023/07/25 02:35:29;;;;;;;9.65;2.70;;;;;;;16.53;100.00;99705.00;4960591;28;20240;-77
2023/07/25 02:37:55;;;;;;;18.45;4.43;;;;;;;16.53;100.00;99699.66;4955411;28;20221;-78
2023/07/25 02:40:22;;;;;;;12.65;3.72;;;;;;;16.45;100.00;99702.53;4957000;28;20627;-79
2023/07/25 02:42:49;;;;;;;15.07;3.67;;;;;;;16.42;100.00;99693.72;4954776;28;20680;-80
2023/07/25 02:45:16;;;;;;;9.57;2.75;;;;;;;16.45;100.00;99688.31;4961977;28;20236;-80
2023/07/25 02:47:43;;;;;;;8.57;2.40;;;;;;;16.48;100.00;99680.22;4967922;28;20577;-80
2023/07/25 02:50:10;;;;;;;7.20;2.10;;;;;;;16.49;100.00;99679.31;4955784;28;20244;-77
2023/07/25 02:52:36;;;;;;;9.57;2.70;;;;;;;16.54;100.00;99674.72;4963539;28;20229;-79
2023/07/25 02:55:05;;;;;;;42.53;8.93;;;;;;;16.51;100.00;99674.81;4954583;28;20252;-79
2023/07/25 02:57:32;;;;;;;10.60;3.08;;;;;;;16.47;100.00;99671.34;4955751;28;20319;-79
2023/07/25 02:59:58;;;;;;;40.50;8.13;;;;;;;16.33;100.00;99666.38;4957344;28;20725;-78
2023/07/25 03:02:25;;;;;;;7.32;2.05;;;;;;;16.32;100.00;99669.97;4962476;28;20225;-78
2023/07/25 03:04:52;;;;;;;37.45;7.45;;;;;;;16.31;100.00;99665.53;4956209;28;20237;-78
2023/07/25 03:07:19;;;;;;;7.97;2.42;;;;;;;16.33;100.00;99657.50;4961752;28;20229;-78
2023/07/25 03:09:46;;;;;;;8.45;2.45;;;;;;;16.24;100.00;99647.06;4963618;28;20300;-77
2023/07/25 03:12:13;;;;;;;7.43;2.25;;;;;;;16.18;100.00;99641.91;4952618;28;20244;-77
2023/07/25 03:14:39;;;;;;;8.63;2.50;;;;;;;16.22;100.00;99632.91;4956663;28;20248;-78
2023/07/25 03:17:06;;;;;;;35.20;6.15;;;;;;;16.16;100.00;99631.28;4957537;28;20221;-78
2023/07/25 03:19:33;;;;;;;7.40;2.28;;;;;;;16.18;100.00;99629.44;4963095;28;20324;-78
2023/07/25 03:21:59;;;;;;;42.72;7.70;;;;;;;16.24;100.00;99639.94;4957144;28;20244;-78
2023/07/25 03:24:26;;;;;;;8.82;2.60;;;;;;;16.12;100.00;99634.94;4964418;28;20244;-78
2023/07/25 03:26:53;;;;;;;37.60;6.40;;;;;;;16.20;100.00;99635.59;4960696;28;20236;-78
2023/07/25 03:29:20;;;;;;;7.88;2.40;;;;;;;16.15;100.00;99634.84;4961068;28;20316;-78
2023/07/25 03:31:46;;;;;;;7.20;2.05;;;;;;;16.23;100.00;99637.31;4960461;28;20233;-78
2023/07/25 03:34:13;;;;;;;7.75;2.38;;;;;;;16.25;100.00;99646.16;4966596;28;20316;-78
2023/07/25 03:36:40;;;;;;;7.13;2.10;;;;;;;16.29;100.00;99658.50;4964606;28;20243;-78
2023/07/25 03:39:07;;;;;;;15.20;3.40;;;;;;;16.27;100.00;99660.34;4966825;28;21443;-78
2023/07/25 03:41:33;;;;;;;7.55;2.17;;;;;;;16.37;100.00;99682.31;4962576;28;20245;-78
2023/07/25 03:44:00;;;;;;;30.55;6.60;;;;;;;16.36;100.00;99675.22;4960909;28;20257;-79
2023/07/25 03:46:27;;;;;;;8.32;2.35;;;;;;;16.36;100.00;99676.09;4964563;28;20237;-78
2023/07/25 03:48:54;;;;;;;29.40;5.55;;;;;;;16.36;100.00;99676.09;4960814;28;20229;-78
2023/07/25 03:51:21;;;;;;;9.82;3.47;;;;;;;16.36;100.00;99680.56;4963014;28;20229;-78
2023/07/25 03:53:47;;;;;;;7.75;2.22;;;;;;;16.31;100.00;99672.66;4960683;28;20229;-79
2023/07/25 03:56:14;;;;;;;8.45;2.35;;;;;;;16.39;100.00;99686.69;4962545;28;20229;-78
2023/07/25 03:58:41;;;;;;;12.13;3.20;;;;;;;16.33;100.00;99682.38;4957243;28;20233;-78
2023/07/25 04:01:07;;;;;;;9.80;2.38;;;;;;;16.33;100.00;99674.38;4956247;28;20248;-80
2023/07/25 04:03:34;;;;;;;6.68;1.90;;;;;;;16.32;100.00;99666.41;4963288;28;20233;-78
2023/07/25 04:06:01;;;;;;;33.95;7.22;;;;;;;16.37;100.00;99672.50;4958753;28;20247;-78
2023/07/25 04:08:28;;;;;;;8.57;2.40;;;;;;;16.36;100.00;99669.88;4944273;28;20721;-79
2023/07/25 04:10:55;;;;;;;102.32;19.02;;;;;;;16.39;100.00;99681.34;4924500;28;20236;-78
2023/07/25 04:13:21;;;;;;;8.27;2.30;;;;;;;16.45;100.00;99696.31;4956546;28;20232;-78
2023/07/25 04:15:48;;;;;;;9.32;2.50;;;;;;;16.46;100.00;99698.06;4953578;28;20336;-79
2023/07/25 04:18:15;;;;;;;12.27;3.17;;;;;;;16.54;100.00;99698.75;4960387;28;20228;-78
2023/07/25 04:20:42;;;;;;;11.35;2.95;;;;;;;16.57;100.00;99693.31;4961944;28;20705;-78
2023/07/25 04:23:10;;;;;;;14.25;3.88;;;;;;;16.63;100.00;99704.72;4954725;28;20654;-78
2023/07/25 04:25:36;;;;;;;9.40;2.80;;;;;;;16.67;100.00;99710.88;4959959;28;20244;-78
2023/07/25 04:28:06;;;;;;;31.55;7.22;;;;;;;16.78;100.00;99721.25;4956663;28;20236;-78
2023/07/25 04:30:33;;;;;;;7.43;2.10;;;;;;;16.80;100.00;99716.75;4961099;28;20233;-80
2023/07/25 04:33:00;;;;;;;37.17;6.90;;;;;;;16.86;100.00;99719.25;4958975;28;20229;-78
2023/07/25 04:35:26;;;;;;;12.35;3.22;;;;;;;16.85;100.00;99714.81;4961868;28;20240;-78
2023/07/25 04:37:53;;;;;;;17.30;4.68;;;;;;;16.89;100.00;99720.03;4951741;28;20233;-78
2023/07/25 04:40:20;;;;;;;7.07;2.13;;;;;;;16.87;100.00;99723.66;4961309;28;20681;-78
2023/07/25 04:42:47;;;;;;;10.65;2.95;;;;;;;16.90;100.00;99721.81;4964471;28;20249;-78
2023/07/25 04:45:13;;;;;;;10.73;2.92;;;;;;;17.08;100.00;99714.22;4955359;28;20237;-78
2023/07/25 04:47:40;;;;;;;8.07;2.42;;;;;;;17.11;100.00;99719.47;4961379;28;20251;-78
2023/07/25 04:50:07;;;;;;;13.48;3.60;;;;;;;17.14;100.00;99714.03;4955402;28;20244;-78
2023/07/25 04:52:34;;;;;;;9.02;2.40;;;;;;;17.15;100.00;99713.09;4988266;28;20232;-78
2023/07/25 04:55:01;;;;;;;15.77;4.32;;;;;;;17.22;100.00;99715.56;4946584;28;20287;-78
2023/07/25 04:57:28;;;;;;;6.60;2.03;;;;;;;17.22;100.00;99712.00;4961290;28;20244;-78
2023/07/25 04:59:54;;;;;;;13.95;4.22;;;;;;;17.27;100.00;99712.75;4958526;28;20221;-78
2023/07/25 05:02:22;;;;;;;7.50;2.33;;;;;;;17.21;100.00;99726.28;4965293;28;20229;-78
2023/07/25 05:04:49;;;;;;;8.48;2.50;;;;;;;17.14;100.00;99722.91;4960804;28;20338;-78
2023/07/25 05:07:16;;;;;;;7.68;2.22;;;;;;;17.10;100.00;99723.06;4960622;28;20233;-78
2023/07/25 05:09:43;;;;;;;9.73;2.70;;;;;;;17.04;100.00;99724.09;4963776;28;20236;-81
2023/07/25 05:12:13;;;;;;;15.30;4.40;;;;;;;17.04;100.00;99724.09;4953656;28;20653;-80
2023/07/25 05:14:40;;;;;;;12.10;3.47;;;;;;;17.03;100.00;99738.38;4965823;28;20236;-80
2023/07/25 05:17:07;;;;;;;11.43;3.13;;;;;;;17.03;100.00;99726.81;4956006;28;22268;-81
2023/07/25 05:19:33;;;;;;;8.07;2.45;;;;;;;16.96;100.00;99744.81;4962635;28;20323;-78
2023/07/25 05:22:00;;;;;;;17.20;4.35;;;;;;;16.98;100.00;99759.00;4960127;28;20229;-81
2023/07/25 05:24:27;;;;;;;8.88;2.58;;;;;;;16.90;100.00;99756.53;4965632;28;20560;-80
2023/07/25 05:26:53;;;;;;;14.65;3.95;;;;;;;16.76;100.00;99742.66;4958152;28;20316;-81
2023/07/25 05:29:21;;;;;;;10.20;3.03;;;;;;;16.83;100.00;99762.06;4961253;28;20232;-80
2023/07/25 05:31:48;;;;;;;12.52;3.60;;;;;;;16.73;100.00;99749.88;4960049;28;20232;-81
2023/07/25 05:34:14;;;;;;;11.63;3.38;;;;;;;16.78;100.00;99750.63;4962595;28;20609;-81
2023/07/25 05:36:41;;;;;;;12.20;3.50;;;;;;;16.77;100.00;99757.75;4960335;28;20240;-78
2023/07/25 05:39:08;;;;;;;16.05;4.28;;;;;;;16.81;100.00;99763.91;4957405;28;20232;-80
2023/07/25 05:41:34;;;;;;;10.38;3.03;;;;;;;16.79;100.00;99763.94;4962426;28;20236;-81
2023/07/25 05:44:01;;;;;;;17.02;4.63;;;;;;;16.76;100.00;99757.81;4959295;28;20228;-80
2023/07/25 05:46:28;;;;;;;7.25;2.20;;;;;;;16.80;100.00;99763.03;4960381;28;20232;-80
2023/07/25 05:48:54;;;;;;;17.60;4.53;;;;;;;16.88;100.00;99773.50;4956361;28;20264;-81
2023/07/25 05:51:21;;;;;;;18.77;5.53;;;;;;;16.93;100.00;99771.59;4960788;28;20315;-80
2023/07/25 05:53:48;;;;;;;8.27;2.42;;;;;;;16.91;100.00;99768.09;4957092;28;20225;-80
2023/07/25 05:56:14;;;;;;;8.27;2.45;;;;;;;16.86;100.00;99761.97;4957845;28;20236;-80
2023/07/25 05:58:41;;;;;;;10.77;3.15;;;;;;;16.92;100.00;99772.53;4935793;28;20229;-80
2023/07/25 06:01:08;;;;;;;8.27;2.28;;;;;;;16.93;100.00;99783.16;4957110;28;20252;-80
2023/07/25 06:03:34;;;;;;;10.50;3.17;;;;;;;17.06;100.00;99790.84;4957319;28;20233;-82
2023/07/25 06:06:01;;;;;;;18.48;4.35;;;;;;;17.05;100.00;99797.09;4957282;28;20315;-83
2023/07/25 06:08:28;;;;;;;11.85;3.55;;;;;;;16.94;100.00;99786.72;4964759;28;20309;-81
2023/07/25 06:10:54;;;;;;;16.33;4.40;;;;;;;16.90;100.00;99772.56;4960036;28;20233;-81
2023/07/25 06:13:21;;;;;;;9.05;2.75;;;;;;;17.03;100.00;99781.13;4962666;28;20235;-82
2023/07/25 06:15:48;;;;;;;9.52;2.88;;;;;;;17.21;100.00;99798.44;4953283;28;20225;-85
2023/07/25 06:18:15;;;;;;;8.77;2.45;;;;;;;17.24;100.00;99809.03;4967698;28;20229;-83
2023/07/25 06:20:42;;;;;;;9.15;2.78;;;;;;;17.34;100.00;99825.69;4957570;28;20229;-81
2023/07/25 06:23:08;;;;;;;9.25;2.83;;;;;;;17.46;100.00;99834.22;4948654;28;20249;-81
2023/07/25 06:25:35;;;;;;;10.38;2.90;;;;;;;17.40;100.00;99833.53;4964966;28;20244;-81
2023/07/25 06:28:05;;;;;;;16.60;4.47;;;;;;;17.58;100.00;99851.72;4961051;28;20225;-82
2023/07/25 06:30:32;;;;;;;8.05;2.30;;;;;;;17.65;100.00;99844.38;4968147;28;20240;-81
2023/07/25 06:32:59;;;;;;;13.82;4.07;;;;;;;17.65;100.00;99839.03;4961177;28;20326;-81
2023/07/25 06:35:26;;;;;;;8.25;2.40;;;;;;;17.54;100.00;99826.88;4965596;28;20228;-81
2023/07/25 06:37:53;;;;;;;20.05;5.32;;;;;;;17.51;100.00;99831.44;4960601;28;20283;-82
2023/07/25 06:40:19;;;;;;;11.32;3.22;;;;;;;17.50;100.00;99835.03;4964943;28;20225;-81
2023/07/25 06:42:46;;;;;;;10.70;2.97;;;;;;;17.48;100.00;99831.50;4965480;28;20232;-81
2023/07/25 06:45:13;;;;;;;7.60;2.28;;;;;;;17.66;100.00;99839.03;4962516;28;20247;-81
2023/07/25 06:47:39;;;;;;;8.95;2.63;;;;;;;17.81;100.00;99849.28;4970902;28;20239;-82
2023/07/25 06:50:07;;;;;;;11.68;3.30;;;;;;;17.87;100.00;99848.22;4966288;28;20229;-81
2023/07/25 06:52:33;;;;;;;7.28;2.05;;;;;;;17.94;100.00;99847.09;4969802;28;20237;-81
2023/07/25 06:55:00;;;;;;;15.93;4.35;;;;;;;17.94;100.00;99848.91;4964712;28;20236;-82
2023/07/25 06:57:28;;;;;;;8.05;2.40;;;;;;;17.84;100.00;99837.59;4968930;28;20308;-80
2023/07/25 06:59:55;;;;;;;13.05;3.35;;;;;;;17.76;100.00;99826.25;4958551;28;20332;-80
2023/07/25 07:02:22;;;;;;;7.13;2.22;;;;;;;17.74;100.00;99833.47;4968076;28;20229;-80
2023/07/25 07:04:49;;;;;;;9.75;2.88;;;;;;;17.66;100.00;99827.44;4963401;28;20236;-80
2023/07/25 07:07:15;;;;;;;6.35;2.00;;;;;;;17.55;100.00;99819.72;4967518;28;20233;-80
2023/07/25 07:09:42;;;;;;;8.35;2.40;;;;;;;17.52;100.00;99815.34;4968674;28;20229;-80
2023/07/25 07:12:09;;;;;;;7.82;2.33;;;;;;;17.66;100.00;99819.41;4963691;28;20253;-79
2023/07/25 07:14:35;;;;;;;6.38;1.90;;;;;;;17.84;100.00;99824.25;4968181;28;20765;-80
2023/07/25 07:17:02;;;;;;;13.57;3.53;;;;;;;17.97;100.00;99839.00;4964001;28;20317;-80
2023/07/25 07:19:29;;;;;;;8.10;2.20;;;;;;;18.17;100.00;99849.94;4967247;28;20251;-80
2023/07/25 07:21:56;;;;;;;25.20;5.70;;;;;;;18.15;100.00;99851.78;4962129;28;20554;-80
2023/07/25 07:24:22;;;;;;;9.00;2.58;;;;;;;18.10;100.00;99843.03;4981890;28;20682;-80
2023/07/25 07:26:49;;;;;;;13.38;3.15;;;;;;;18.03;100.00;99819.19;4962532;28;20233;-79
2023/07/25 07:29:16;;;;;;;9.85;2.75;;;;;;;18.00;100.00;99819.28;4973279;28;20343;-80
2023/07/25 07:31:43;;;;;;;8.07;2.33;;;;;;;18.09;100.00;99811.84;4966602;28;20229;-80
2023/07/25 07:34:11;;;;;;;16.40;3.80;;;;;;;18.30;100.00;99822.84;4961700;28;20591;-79
2023/07/25 07:36:37;;;;;;;8.00;2.35;;;;;;;18.33;100.00;99817.38;4967290;28;20236;-79
2023/07/25 07:39:04;;;;;;;26.08;6.13;;;;;;;18.47;100.00;99837.41;4963529;28;20221;-80
2023/07/25 07:41:31;;;;;;;7.57;2.17;;;;;;;18.81;100.00;99853.28;4967618;28;20221;-79
2023/07/25 07:43:58;;;;;;;16.38;4.25;;;;;;;19.10;100.00;99857.63;4961274;28;20225;-81
2023/07/25 07:46:28;;;;;;;8.63;2.53;;;;;;;18.99;100.00;99840.19;4968878;28;20229;-83
2023/07/25 07:48:59;;;;;;;34.35;6.55;;;;;;;19.04;100.00;99827.50;4928280;23;20240;-80
2023/07/25 07:51:26;;;;;;;7.45;2.15;;;;;;;19.09;100.00;99830.88;4921626;28;20229;-79
2023/07/25 07:53:53;;;;;;;36.28;6.97;;;;;;;18.71;100.00;99789.34;4941417;28;20230;-80
2023/07/25 07:56:20;;;;;;;10.10;3.03;;;;;;;18.59;100.00;99771.00;4938144;28;20240;-80
2023/07/25 07:58:46;;;;;;;7.00;1.95;;;;;;;18.59;100.00;99763.84;4941487;28;20249;-80
2023/07/25 08:01:15;;;;;;;11.52;3.22;;;;;;;18.69;100.00;99775.13;4942275;28;20636;-80
2023/07/25 08:03:43;;;;;;;8.98;2.70;;;;;;;18.77;100.00;99770.38;4946500;28;20229;-79
2023/07/25 08:06:10;;;;;;;8.52;2.53;;;;;;;18.94;100.00;99777.84;4926162;28;20245;-78
2023/07/25 08:08:37;;;;;;;9.40;2.58;;;;;;;19.01;100.00;99784.72;4927467;28;20230;-79
2023/07/25 08:11:04;;;;;;;12.10;3.50;;;;;;;19.35;100.00;99800.47;4944605;28;20225;-79
2023/07/25 08:13:31;;;;;;;9.07;2.67;;;;;;;19.61;100.00;99807.59;4936071;28;20229;-78
2023/07/25 08:15:58;;;;;;;15.07;4.43;;;;;;;19.75;100.00;99799.88;4935619;28;20230;-77
2023/07/25 08:18:24;;;;;;;10.30;2.90;;;;;;;19.88;100.00;99794.91;4944678;28;20244;-76
2023/07/25 08:20:58;;;;;;;10.85;3.25;;;;;;;20.40;100.00;99804.47;4930686;28;20229;-78
2023/07/25 08:23:26;;;;;;;6.80;2.08;;;;;;;20.46;100.00;99782.72;4947589;28;20721;-77
2023/07/25 08:25:56;;;;;;;18.83;4.95;;;;;;;20.69;100.00;99769.19;4932658;28;20317;-76
2023/07/25 08:28:23;;;;;;;9.10;2.45;;;;;;;20.31;100.00;99705.47;4937364;28;20233;-78
2023/07/25 08:31:05;;;;;;;9.77;2.72;;;;;;;20.38;100.00;99691.72;4936193;28;20229;-77
2023/07/25 08:33:33;;;;;;;7.47;2.25;;;;;;;20.32;100.00;99670.50;4937652;28;20671;-77
2023/07/25 08:35:59;;;;;;;19.98;5.22;;;;;;;20.15;100.00;99630.06;4937980;28;20233;-77
2023/07/25 08:38:27;;;;;;;6.55;1.98;;;;;;;19.99;100.00;99607.50;4944194;28;20225;-78
2023/07/25 08:41:17;;;;;;;15.93;4.45;;;;;;;19.91;100.00;99580.13;4938729;28;20233;-78
2023/07/25 08:43:44;;;;;;;14.52;4.00;;;;;;;19.97;100.00;99574.50;4959301;23;20238;-79
2023/07/25 08:46:13;;;;;;;10.23;2.83;;;;;;;19.65;100.00;99551.72;4951581;28;20244;-81
2023/07/25 08:48:41;;;;;;;9.27;2.50;;;;;;;19.69;100.00;99558.72;4946770;28;20237;-79
2023/07/25 08:51:22;;;;;;;11.80;3.38;;;;;;;19.63;100.00;99550.91;4928628;28;20667;-78
2023/07/25 08:53:58;;;;;;;9.32;2.55;;;;;;;19.91;100.00;99562.22;4945483;28;20236;-79
2023/07/25 08:56:25;;;;;;;12.35;3.53;;;;;;;20.25;100.00;99584.91;4950027;28;20292;-78
2023/07/25 08:58:52;;;;;;;14.65;3.72;;;;;;;20.34;100.00;99574.63;4950502;28;20237;-80
2023/07/25 09:01:21;;;;;;;10.38;2.90;;;;;;;20.65;100.00;99581.34;4951750;28;20243;-78
2023/07/25 09:03:48;;;;;;;8.88;2.47;;;;;;;20.76;100.00;99587.09;4950830;28;20288;-78
2023/07/25 09:06:15;;;;;;;8.85;2.58;;;;;;;20.06;100.00;99526.66;4936562;28;20238;-81
2023/07/25 09:08:42;;;;;;;13.75;3.63;;;;;;;18.81;100.00;99421.13;4950433;28;20237;-79
2023/07/25 09:11:12;;;;;;;14.25;3.85;;;;;;;18.52;100.00;99408.88;4943052;28;20295;-78
2023/07/25 09:13:39;;;;;;;9.60;2.63;;;;;;;18.27;100.00;99422.34;4952375;28;20314;-77
2023/07/25 09:16:06;;;;;;;21.00;5.03;;;;;;;18.12;100.00;99433.59;4940958;28;20230;-77
2023/07/25 09:18:34;;;;;;;9.63;2.75;;;;;;;17.87;100.00;99433.63;4948234;28;20240;-78
2023/07/25 09:21:01;;;;;;;24.98;6.68;;;;;;;17.71;100.00;99448.50;4944120;28;20225;-75
2023/07/25 09:23:27;;;;;;;9.90;2.67;;;;;;;17.65;100.00;99470.06;4951784;28;20310;-77
2023/07/25 09:26:10;;;;;;;14.77;3.72;;;;;;;17.67;100.00;99494.97;4940454;28;20229;-79
2023/07/25 09:28:48;;;;;;;10.40;2.60;;;;;;;17.54;100.00;99495.38;4937014;28;20225;-79
2023/07/25 09:31:20;;;;;;;9.88;2.70;;;;;;;17.56;100.00;99498.88;4946791;28;20233;-77
2023/07/25 09:33:50;;;;;;;11.40;3.15;;;;;;;17.36;100.00;99493.31;4946174;28;20240;-77
2023/07/25 09:36:18;;;;;;;8.45;2.40;;;;;;;17.44;100.00;99507.31;4933072;28;20245;-76
2023/07/25 09:38:52;;;;;;;9.88;2.70;;;;;;;17.29;100.00;99507.81;4944311;28;20402;-77
2023/07/25 09:41:19;;;;;;;11.10;2.90;;;;;;;17.35;100.00;99512.09;4938784;28;20233;-77
2023/07/25 09:43:46;;;;;;;11.23;2.95;;;;;;;17.36;100.00;99520.06;4945309;28;20233;-77
2023/07/25 09:46:13;;;;;;;11.05;3.00;;;;;;;17.33;100.00;99519.28;4943196;28;20244;-77
2023/07/25 09:48:46;;;;;;;10.18;2.80;;;;;;;17.18;100.00;99521.53;4953273;28;20245;-78
2023/07/25 09:51:13;;;;;;;10.63;2.75;;;;;;;17.16;100.00;99526.03;4936309;28;20237;-79
2023/07/25 09:53:44;;;;;;;10.88;2.88;;;;;;;17.21;100.00;99528.56;4945655;28;20237;-79
2023/07/25 09:56:11;;;;;;;12.52;3.22;;;;;;;16.88;100.00;99503.78;4931064;28;20245;-78
2023/07/25 09:58:38;;;;;;;11.68;3.03;;;;;;;17.17;100.00;99541.16;4950754;28;20233;-81
2023/07/25 10:01:25;;;;;;;10.82;2.85;;;;;;;17.11;100.00;99532.47;4945866;28;20253;-81
2023/07/25 10:03:52;;;;;;;20.17;5.25;;;;;;;17.15;100.00;99526.09;4950446;28;20237;-79
2023/07/25 10:06:20;;;;;;;9.55;2.70;;;;;;;17.23;100.00;99532.06;4941995;28;20252;-79
2023/07/25 10:08:47;;;;;;;13.75;3.47;;;;;;;17.19;100.00;99525.94;4950037;28;20229;-80
2023/07/25 10:11:14;;;;;;;8.55;2.28;;;;;;;17.21;100.00;99525.91;4938646;28;20281;-79
2023/07/25 10:13:41;;;;;;;12.98;3.53;;;;;;;17.55;100.00;99560.41;4945074;28;20233;-80
2023/07/25 10:16:10;;;;;;;13.68;3.33;;;;;;;17.80;100.00;99590.78;4937126;28;20552;-80
2023/07/25 10:18:37;;;;;;;10.27;2.70;;;;;;;17.78;100.00;99586.41;4940350;28;20221;-80
2023/07/25 10:21:06;;;;;;;57.00;10.60;;;;;;;17.88;100.00;99602.09;4945978;28;20225;-79
2023/07/25 10:23:34;;;;;;;9.98;2.78;;;;;;;18.03;100.00;99608.72;4938465;28;20324;-79
2023/07/25 10:26:11;;;;;;;49.10;8.85;;;;;;;18.28;100.00;99638.19;4926979;28;20732;-77
2023/07/25 10:28:38;;;;;;;9.00;2.55;;;;;;;18.37;100.00;99640.56;4970298;28;20236;-78
2023/07/25 10:31:08;;;;;;;18.10;4.97;;;;;;;18.85;100.00;99687.94;4943149;28;20344;-78
2023/07/25 10:33:38;;;;;;;8.82;2.42;;;;;;;18.81;100.00;99660.41;4956014;28;20232;-78
2023/07/25 10:36:09;;;;;;;17.27;4.57;;;;;;;19.06;100.00;99648.75;4940391;28;20240;-77
2023/07/25 10:38:40;;;;;;;10.40;2.78;;;;;;;18.64;100.00;99616.44;4947105;28;20233;-77
2023/07/25 10:41:08;;;;;;;12.80;3.53;;;;;;;18.93;100.00;99626.03;4933558;28;20296;-78
2023/07/25 10:43:55;;;;;;;9.95;2.65;;;;;;;18.53;100.00;99587.31;4948740;28;20569;-78
2023/07/25 10:46:26;;;;;;;9.00;2.42;;;;;;;18.32;100.00;99561.34;4945023;28;20230;-77
2023/07/25 10:48:55;;;;;;;14.45;4.03;;;;;;;18.67;100.00;99602.91;4948276;28;20241;-78
2023/07/25 10:51:23;;;;;;;8.50;2.40;;;;;;;18.46;100.00;99578.66;4947759;28;20225;-77
2023/07/25 10:54:09;;;;;;;12.63;3.30;;;;;;;18.70;100.00;99584.06;4942403;28;20308;-78
2023/07/25 10:56:37;;;;;;;10.23;2.78;;;;;;;19.02;100.00;99604.25;4928729;28;20244;-77
2023/07/25 10:59:05;;;;;;;15.15;4.40;;;;;;;19.07;100.00;99586.19;4946684;28;20222;-80
2023/07/25 11:01:43;;;;;;;8.00;2.33;;;;;;;18.84;100.00;99544.22;4949805;28;20218;-79
2023/07/25 11:04:23;;;;;;;12.00;3.13;;;;;;;18.74;100.00;99538.34;4946090;28;20316;-79
2023/07/25 11:07:12;;;;;;;10.80;3.13;;;;;;;18.91;100.00;99547.53;4941163;28;20272;-79
2023/07/25 11:09:43;;;;;;;7.72;2.17;;;;;;;19.30;100.00;99554.00;4952864;28;20241;-79
2023/07/25 11:12:11;;;;;;;6.35;1.88;;;;;;;19.28;100.00;99546.94;4941769;28;20300;-77
2023/07/25 11:14:44;;;;;;;10.10;2.67;;;;;;;19.69;100.00;99556.03;4946055;28;20396;-78
2023/07/25 11:17:12;;;;;;;8.82;2.42;;;;;;;19.69;100.00;99527.41;4941977;28;21154;-78
2023/07/25 11:19:38;;;;;;;10.45;2.90;;;;;;;19.60;100.00;99517.06;4945803;28;20770;-78
2023/07/25 11:22:09;;;;;;;13.63;3.72;;;;;;;19.28;100.00;99474.56;4938316;28;20226;-78
2023/07/25 11:24:44;;;;;;;9.20;2.63;;;;;;;19.48;100.00;99491.56;4939320;28;20236;-78